Аэропорт: Емельяново. Красноярск

ICAO: UNKL

METAR:
2018/09/23 11:00
UNKL 231100Z 14002MPS CAVOK 16/07 Q1014 R11/CLRD65 NOSIG RMK QFE735
METAR:
2018/09/23 09:25
TAF UNKL 230800Z 2309/2409 19003G10MPS 9999 SCT020CB 
     FM231200 23003MPS 3100 -SHRA BR SCT011 SCT017CB 
     FM240300 23003G10MPS 9999 SCT020CB 
      TEMPO 2403/2409 3100 -SHRA BKN013CB